sensor_id;sensor_type;location;lat;lon;timestamp;P1;durP1;ratioP1;P2;durP2;ratioP2
17592;SDS011;8915;51.760;14.300;2023-11-19T00:00:35;6.10;;;4.30;;
17592;SDS011;8915;51.760;14.300;2023-11-19T00:03:02;6.40;;;4.50;;
17592;SDS011;8915;51.760;14.300;2023-11-19T00:05:29;5.17;;;4.40;;
17592;SDS011;8915;51.760;14.300;2023-11-19T00:07:57;8.40;;;4.73;;
17592;SDS011;8915;51.760;14.300;2023-11-19T00:10:23;5.67;;;4.43;;
17592;SDS011;8915;51.760;14.300;2023-11-19T00:12:50;6.27;;;4.60;;
17592;SDS011;8915;51.760;14.300;2023-11-19T00:15:16;6.63;;;4.37;;
17592;SDS011;8915;51.760;14.300;2023-11-19T00:17:44;7.93;;;4.23;;
17592;SDS011;8915;51.760;14.300;2023-11-19T00:20:12;7.60;;;4.50;;
17592;SDS011;8915;51.760;14.300;2023-11-19T00:22:39;5.80;;;4.43;;
17592;SDS011;8915;51.760;14.300;2023-11-19T00:25:08;7.23;;;5.30;;
17592;SDS011;8915;51.760;14.300;2023-11-19T00:27:35;6.87;;;4.50;;
17592;SDS011;8915;51.760;14.300;2023-11-19T00:30:03;7.17;;;4.50;;
17592;SDS011;8915;51.760;14.300;2023-11-19T00:32:31;7.73;;;5.10;;
17592;SDS011;8915;51.760;14.300;2023-11-19T00:34:59;5.67;;;4.43;;
17592;SDS011;8915;51.760;14.300;2023-11-19T00:37:25;5.83;;;4.47;;
17592;SDS011;8915;51.760;14.300;2023-11-19T00:39:51;7.77;;;4.70;;
17592;SDS011;8915;51.760;14.300;2023-11-19T00:42:19;6.00;;;3.97;;
17592;SDS011;8915;51.760;14.300;2023-11-19T00:44:46;6.80;;;4.33;;
17592;SDS011;8915;51.760;14.300;2023-11-19T00:47:12;6.47;;;4.53;;
17592;SDS011;8915;51.760;14.300;2023-11-19T00:49:39;6.23;;;4.40;;
17592;SDS011;8915;51.760;14.300;2023-11-19T00:52:05;4.60;;;4.17;;
17592;SDS011;8915;51.760;14.300;2023-11-19T00:54:32;5.03;;;3.83;;
17592;SDS011;8915;51.760;14.300;2023-11-19T00:56:58;6.00;;;4.60;;
17592;SDS011;8915;51.760;14.300;2023-11-19T00:59:27;5.83;;;4.17;;
17592;SDS011;8915;51.760;14.300;2023-11-19T01:01:54;7.10;;;4.63;;
17592;SDS011;8915;51.760;14.300;2023-11-19T01:04:21;7.40;;;4.80;;
17592;SDS011;8915;51.760;14.300;2023-11-19T01:06:49;8.00;;;4.13;;
17592;SDS011;8915;51.760;14.300;2023-11-19T01:09:15;6.57;;;4.27;;
17592;SDS011;8915;51.760;14.300;2023-11-19T01:11:42;6.57;;;4.43;;
17592;SDS011;8915;51.760;14.300;2023-11-19T01:14:08;5.63;;;4.57;;
17592;SDS011;8915;51.760;14.300;2023-11-19T01:16:36;5.97;;;4.57;;
17592;SDS011;8915;51.760;14.300;2023-11-19T01:19:02;5.90;;;3.90;;
17592;SDS011;8915;51.760;14.300;2023-11-19T01:21:30;5.97;;;4.40;;
17592;SDS011;8915;51.760;14.300;2023-11-19T01:23:57;5.73;;;4.47;;
17592;SDS011;8915;51.760;14.300;2023-11-19T01:26:23;8.07;;;4.43;;
17592;SDS011;8915;51.760;14.300;2023-11-19T01:28:50;7.00;;;4.73;;
17592;SDS011;8915;51.760;14.300;2023-11-19T01:31:17;7.20;;;4.87;;
17592;SDS011;8915;51.760;14.300;2023-11-19T01:33:46;5.37;;;4.23;;
17592;SDS011;8915;51.760;14.300;2023-11-19T01:36:13;6.07;;;4.27;;
17592;SDS011;8915;51.760;14.300;2023-11-19T01:38:40;7.70;;;4.83;;
17592;SDS011;8915;51.760;14.300;2023-11-19T01:41:07;5.53;;;4.13;;
17592;SDS011;8915;51.760;14.300;2023-11-19T01:43:34;6.27;;;4.27;;
17592;SDS011;8915;51.760;14.300;2023-11-19T01:46:01;6.97;;;4.80;;
17592;SDS011;8915;51.760;14.300;2023-11-19T01:48:28;7.27;;;4.20;;
17592;SDS011;8915;51.760;14.300;2023-11-19T01:50:56;5.80;;;4.47;;
17592;SDS011;8915;51.760;14.300;2023-11-19T01:53:23;6.70;;;4.60;;
17592;SDS011;8915;51.760;14.300;2023-11-19T01:55:50;6.53;;;4.27;;
17592;SDS011;8915;51.760;14.300;2023-11-19T01:58:17;6.47;;;4.50;;
17592;SDS011;8915;51.760;14.300;2023-11-19T02:00:44;9.67;;;4.77;;
17592;SDS011;8915;51.760;14.300;2023-11-19T02:03:11;5.33;;;3.97;;
17592;SDS011;8915;51.760;14.300;2023-11-19T02:05:39;6.33;;;4.63;;
17592;SDS011;8915;51.760;14.300;2023-11-19T02:08:07;5.47;;;3.97;;
17592;SDS011;8915;51.760;14.300;2023-11-19T02:10:33;8.00;;;4.50;;
17592;SDS011;8915;51.760;14.300;2023-11-19T02:13:00;6.57;;;4.40;;
17592;SDS011;8915;51.760;14.300;2023-11-19T02:15:27;5.20;;;3.97;;
17592;SDS011;8915;51.760;14.300;2023-11-19T02:17:53;6.53;;;4.20;;
17592;SDS011;8915;51.760;14.300;2023-11-19T02:20:20;7.90;;;4.53;;
17592;SDS011;8915;51.760;14.300;2023-11-19T02:22:46;6.53;;;4.20;;
17592;SDS011;8915;51.760;14.300;2023-11-19T02:25:19;5.93;;;4.63;;
17592;SDS011;8915;51.760;14.300;2023-11-19T02:27:52;6.63;;;4.30;;
17592;SDS011;8915;51.760;14.300;2023-11-19T02:30:21;5.67;;;4.10;;
17592;SDS011;8915;51.760;14.300;2023-11-19T02:32:51;5.00;;;4.07;;
17592;SDS011;8915;51.760;14.300;2023-11-19T02:35:18;5.63;;;4.33;;
17592;SDS011;8915;51.760;14.300;2023-11-19T02:37:46;6.53;;;4.20;;
17592;SDS011;8915;51.760;14.300;2023-11-19T02:40:13;5.17;;;4.20;;
17592;SDS011;8915;51.760;14.300;2023-11-19T02:42:39;4.37;;;3.60;;
17592;SDS011;8915;51.760;14.300;2023-11-19T02:45:08;5.13;;;3.73;;
17592;SDS011;8915;51.760;14.300;2023-11-19T02:47:39;4.40;;;3.47;;
17592;SDS011;8915;51.760;14.300;2023-11-19T02:50:06;5.47;;;3.70;;
17592;SDS011;8915;51.760;14.300;2023-11-19T02:52:38;4.73;;;3.40;;
17592;SDS011;8915;51.760;14.300;2023-11-19T02:55:06;4.83;;;3.60;;
17592;SDS011;8915;51.760;14.300;2023-11-19T02:57:34;4.30;;;3.20;;
17592;SDS011;8915;51.760;14.300;2023-11-19T03:00:00;4.70;;;3.10;;
17592;SDS011;8915;51.760;14.300;2023-11-19T03:02:33;5.93;;;3.63;;
17592;SDS011;8915;51.760;14.300;2023-11-19T03:05:09;5.97;;;3.50;;
17592;SDS011;8915;51.760;14.300;2023-11-19T03:07:35;4.53;;;3.63;;
17592;SDS011;8915;51.760;14.300;2023-11-19T03:10:02;4.70;;;3.30;;
17592;SDS011;8915;51.760;14.300;2023-11-19T03:12:30;4.53;;;3.37;;
17592;SDS011;8915;51.760;14.300;2023-11-19T03:14:57;4.53;;;3.50;;
17592;SDS011;8915;51.760;14.300;2023-11-19T03:17:23;5.37;;;3.10;;
17592;SDS011;8915;51.760;14.300;2023-11-19T03:19:51;4.57;;;3.27;;
17592;SDS011;8915;51.760;14.300;2023-11-19T03:22:17;4.50;;;3.07;;
17592;SDS011;8915;51.760;14.300;2023-11-19T03:24:44;3.73;;;3.03;;
17592;SDS011;8915;51.760;14.300;2023-11-19T03:27:10;5.67;;;3.70;;
17592;SDS011;8915;51.760;14.300;2023-11-19T03:29:37;4.63;;;3.67;;
17592;SDS011;8915;51.760;14.300;2023-11-19T03:32:04;4.00;;;3.57;;
17592;SDS011;8915;51.760;14.300;2023-11-19T03:34:31;4.73;;;3.80;;
17592;SDS011;8915;51.760;14.300;2023-11-19T03:36:59;5.93;;;3.60;;
17592;SDS011;8915;51.760;14.300;2023-11-19T03:39:26;4.83;;;3.50;;
17592;SDS011;8915;51.760;14.300;2023-11-19T03:41:53;5.43;;;3.80;;
17592;SDS011;8915;51.760;14.300;2023-11-19T03:44:19;4.90;;;3.83;;
17592;SDS011;8915;51.760;14.300;2023-11-19T03:46:46;4.57;;;3.30;;
17592;SDS011;8915;51.760;14.300;2023-11-19T03:49:13;5.77;;;3.77;;
17592;SDS011;8915;51.760;14.300;2023-11-19T03:51:39;4.10;;;3.60;;
17592;SDS011;8915;51.760;14.300;2023-11-19T03:54:07;4.73;;;3.60;;
17592;SDS011;8915;51.760;14.300;2023-11-19T03:56:33;5.77;;;4.00;;
17592;SDS011;8915;51.760;14.300;2023-11-19T03:59:00;4.87;;;3.70;;
17592;SDS011;8915;51.760;14.300;2023-11-19T04:01:26;4.97;;;3.43;;
17592;SDS011;8915;51.760;14.300;2023-11-19T04:03:52;6.97;;;3.67;;
17592;SDS011;8915;51.760;14.300;2023-11-19T04:06:20;6.27;;;4.00;;
17592;SDS011;8915;51.760;14.300;2023-11-19T04:08:47;4.47;;;3.23;;
17592;SDS011;8915;51.760;14.300;2023-11-19T04:11:16;4.83;;;3.67;;
17592;SDS011;8915;51.760;14.300;2023-11-19T04:13:42;4.77;;;3.60;;
17592;SDS011;8915;51.760;14.300;2023-11-19T04:16:09;4.77;;;3.40;;
17592;SDS011;8915;51.760;14.300;2023-11-19T04:18:35;3.87;;;3.20;;
17592;SDS011;8915;51.760;14.300;2023-11-19T04:21:01;5.67;;;3.27;;
17592;SDS011;8915;51.760;14.300;2023-11-19T04:23:31;6.17;;;3.63;;
17592;SDS011;8915;51.760;14.300;2023-11-19T04:25:58;5.67;;;4.13;;
17592;SDS011;8915;51.760;14.300;2023-11-19T04:28:27;3.50;;;3.20;;
17592;SDS011;8915;51.760;14.300;2023-11-19T04:30:54;3.70;;;3.20;;
17592;SDS011;8915;51.760;14.300;2023-11-19T04:33:20;5.00;;;3.60;;
17592;SDS011;8915;51.760;14.300;2023-11-19T04:35:47;3.87;;;3.27;;
17592;SDS011;8915;51.760;14.300;2023-11-19T04:38:13;4.30;;;3.23;;
17592;SDS011;8915;51.760;14.300;2023-11-19T04:40:39;4.43;;;3.50;;
17592;SDS011;8915;51.760;14.300;2023-11-19T04:43:06;3.93;;;3.10;;
17592;SDS011;8915;51.760;14.300;2023-11-19T04:45:34;3.83;;;3.10;;
17592;SDS011;8915;51.760;14.300;2023-11-19T04:48:01;4.50;;;3.47;;
17592;SDS011;8915;51.760;14.300;2023-11-19T04:50:27;3.70;;;3.00;;
17592;SDS011;8915;51.760;14.300;2023-11-19T04:52:53;4.43;;;3.17;;
17592;SDS011;8915;51.760;14.300;2023-11-19T04:55:20;4.40;;;3.50;;
17592;SDS011;8915;51.760;14.300;2023-11-19T04:57:47;3.93;;;3.10;;
17592;SDS011;8915;51.760;14.300;2023-11-19T05:00:14;3.93;;;2.97;;
17592;SDS011;8915;51.760;14.300;2023-11-19T05:02:41;3.30;;;2.77;;
17592;SDS011;8915;51.760;14.300;2023-11-19T05:05:08;3.77;;;2.90;;
17592;SDS011;8915;51.760;14.300;2023-11-19T05:07:34;2.90;;;2.60;;
17592;SDS011;8915;51.760;14.300;2023-11-19T05:10:03;4.20;;;3.30;;
17592;SDS011;8915;51.760;14.300;2023-11-19T05:12:31;3.47;;;2.67;;
17592;SDS011;8915;51.760;14.300;2023-11-19T05:14:57;4.17;;;3.20;;
17592;SDS011;8915;51.760;14.300;2023-11-19T05:17:23;3.47;;;2.90;;
17592;SDS011;8915;51.760;14.300;2023-11-19T05:19:51;3.90;;;2.97;;
17592;SDS011;8915;51.760;14.300;2023-11-19T05:22:17;4.03;;;3.03;;
17592;SDS011;8915;51.760;14.300;2023-11-19T05:24:45;3.93;;;2.93;;
17592;SDS011;8915;51.760;14.300;2023-11-19T05:27:13;3.70;;;3.07;;
17592;SDS011;8915;51.760;14.300;2023-11-19T05:29:39;4.23;;;2.93;;
17592;SDS011;8915;51.760;14.300;2023-11-19T05:32:06;3.30;;;2.60;;
17592;SDS011;8915;51.760;14.300;2023-11-19T05:34:33;3.77;;;2.67;;
17592;SDS011;8915;51.760;14.300;2023-11-19T05:37:00;5.33;;;2.70;;
17592;SDS011;8915;51.760;14.300;2023-11-19T05:39:27;3.13;;;2.80;;
17592;SDS011;8915;51.760;14.300;2023-11-19T05:41:54;3.17;;;2.83;;
17592;SDS011;8915;51.760;14.300;2023-11-19T05:44:20;3.77;;;2.93;;
17592;SDS011;8915;51.760;14.300;2023-11-19T05:46:46;4.73;;;2.73;;
17592;SDS011;8915;51.760;14.300;2023-11-19T05:49:13;4.50;;;3.10;;
17592;SDS011;8915;51.760;14.300;2023-11-19T05:51:39;2.83;;;2.47;;
17592;SDS011;8915;51.760;14.300;2023-11-19T05:54:07;3.50;;;3.00;;
17592;SDS011;8915;51.760;14.300;2023-11-19T05:56:35;3.93;;;2.97;;
17592;SDS011;8915;51.760;14.300;2023-11-19T05:59:01;4.13;;;2.60;;
17592;SDS011;8915;51.760;14.300;2023-11-19T06:01:32;2.97;;;2.57;;
17592;SDS011;8915;51.760;14.300;2023-11-19T06:03:58;2.93;;;2.60;;
17592;SDS011;8915;51.760;14.300;2023-11-19T06:06:25;3.47;;;2.60;;
17592;SDS011;8915;51.760;14.300;2023-11-19T06:08:52;4.27;;;2.67;;
17592;SDS011;8915;51.760;14.300;2023-11-19T06:11:19;4.37;;;2.50;;
17592;SDS011;8915;51.760;14.300;2023-11-19T06:13:46;2.87;;;2.33;;
17592;SDS011;8915;51.760;14.300;2023-11-19T06:16:12;5.23;;;2.60;;
17592;SDS011;8915;51.760;14.300;2023-11-19T06:18:39;6.00;;;2.60;;
17592;SDS011;8915;51.760;14.300;2023-11-19T06:21:06;4.10;;;2.40;;
17592;SDS011;8915;51.760;14.300;2023-11-19T06:23:33;3.67;;;2.40;;
17592;SDS011;8915;51.760;14.300;2023-11-19T06:25:59;3.00;;;2.60;;
17592;SDS011;8915;51.760;14.300;2023-11-19T06:28:27;3.87;;;2.70;;
17592;SDS011;8915;51.760;14.300;2023-11-19T06:30:54;3.30;;;2.40;;
17592;SDS011;8915;51.760;14.300;2023-11-19T06:33:20;3.27;;;2.53;;
17592;SDS011;8915;51.760;14.300;2023-11-19T06:35:47;2.90;;;2.60;;
17592;SDS011;8915;51.760;14.300;2023-11-19T06:38:14;3.67;;;2.87;;
17592;SDS011;8915;51.760;14.300;2023-11-19T06:40:40;5.00;;;3.00;;
17592;SDS011;8915;51.760;14.300;2023-11-19T06:43:07;5.03;;;3.17;;
17592;SDS011;8915;51.760;14.300;2023-11-19T06:45:35;3.20;;;2.67;;
17592;SDS011;8915;51.760;14.300;2023-11-19T06:48:02;4.03;;;3.10;;
17592;SDS011;8915;51.760;14.300;2023-11-19T06:50:29;6.07;;;3.10;;
17592;SDS011;8915;51.760;14.300;2023-11-19T06:52:56;4.60;;;2.70;;
17592;SDS011;8915;51.760;14.300;2023-11-19T06:55:22;3.80;;;2.83;;
17592;SDS011;8915;51.760;14.300;2023-11-19T06:57:48;2.93;;;2.63;;
17592;SDS011;8915;51.760;14.300;2023-11-19T07:00:15;4.33;;;2.90;;
17592;SDS011;8915;51.760;14.300;2023-11-19T07:02:44;2.77;;;2.40;;
17592;SDS011;8915;51.760;14.300;2023-11-19T07:05:10;3.37;;;3.03;;
17592;SDS011;8915;51.760;14.300;2023-11-19T07:07:38;3.50;;;2.83;;
17592;SDS011;8915;51.760;14.300;2023-11-19T07:10:05;5.47;;;2.60;;
17592;SDS011;8915;51.760;14.300;2023-11-19T07:12:34;4.17;;;3.03;;
17592;SDS011;8915;51.760;14.300;2023-11-19T07:15:01;5.47;;;3.43;;
17592;SDS011;8915;51.760;14.300;2023-11-19T07:17:28;4.87;;;3.37;;
17592;SDS011;8915;51.760;14.300;2023-11-19T07:19:55;4.77;;;3.27;;
17592;SDS011;8915;51.760;14.300;2023-11-19T07:22:24;4.30;;;2.97;;
17592;SDS011;8915;51.760;14.300;2023-11-19T07:24:51;4.03;;;2.93;;
17592;SDS011;8915;51.760;14.300;2023-11-19T07:27:18;4.40;;;3.47;;
17592;SDS011;8915;51.760;14.300;2023-11-19T07:29:44;7.67;;;3.00;;
17592;SDS011;8915;51.760;14.300;2023-11-19T07:32:11;3.83;;;3.20;;
17592;SDS011;8915;51.760;14.300;2023-11-19T07:34:38;4.43;;;3.53;;
17592;SDS011;8915;51.760;14.300;2023-11-19T07:37:06;4.63;;;3.50;;
17592;SDS011;8915;51.760;14.300;2023-11-19T07:39:32;4.20;;;3.10;;
17592;SDS011;8915;51.760;14.300;2023-11-19T07:42:00;6.37;;;4.57;;
17592;SDS011;8915;51.760;14.300;2023-11-19T07:44:26;4.30;;;3.60;;
17592;SDS011;8915;51.760;14.300;2023-11-19T07:46:52;4.30;;;3.70;;
17592;SDS011;8915;51.760;14.300;2023-11-19T07:49:19;9.97;;;6.90;;
17592;SDS011;8915;51.760;14.300;2023-11-19T07:51:45;5.67;;;4.07;;
17592;SDS011;8915;51.760;14.300;2023-11-19T07:54:13;5.10;;;3.67;;
17592;SDS011;8915;51.760;14.300;2023-11-19T07:56:39;5.83;;;4.03;;
17592;SDS011;8915;51.760;14.300;2023-11-19T07:59:06;6.37;;;4.80;;
17592;SDS011;8915;51.760;14.300;2023-11-19T08:01:32;8.10;;;4.60;;
17592;SDS011;8915;51.760;14.300;2023-11-19T08:03:59;4.40;;;3.73;;
17592;SDS011;8915;51.760;14.300;2023-11-19T08:06:26;9.83;;;6.20;;
17592;SDS011;8915;51.760;14.300;2023-11-19T08:08:53;5.67;;;4.40;;
17592;SDS011;8915;51.760;14.300;2023-11-19T08:11:21;4.47;;;4.07;;
17592;SDS011;8915;51.760;14.300;2023-11-19T08:13:47;5.47;;;3.77;;
17592;SDS011;8915;51.760;14.300;2023-11-19T08:16:13;3.83;;;3.40;;
17592;SDS011;8915;51.760;14.300;2023-11-19T08:18:41;6.13;;;3.90;;
17592;SDS011;8915;51.760;14.300;2023-11-19T08:21:09;6.33;;;4.07;;
17592;SDS011;8915;51.760;14.300;2023-11-19T08:23:36;7.43;;;4.80;;
17592;SDS011;8915;51.760;14.300;2023-11-19T08:26:03;4.83;;;4.30;;
17592;SDS011;8915;51.760;14.300;2023-11-19T08:28:31;5.57;;;4.33;;
17592;SDS011;8915;51.760;14.300;2023-11-19T08:30:59;6.63;;;4.10;;
17592;SDS011;8915;51.760;14.300;2023-11-19T08:33:26;5.03;;;3.23;;
17592;SDS011;8915;51.760;14.300;2023-11-19T08:35:52;4.67;;;3.50;;
17592;SDS011;8915;51.760;14.300;2023-11-19T08:38:19;3.47;;;3.03;;
17592;SDS011;8915;51.760;14.300;2023-11-19T08:40:45;4.23;;;3.67;;
17592;SDS011;8915;51.760;14.300;2023-11-19T08:43:12;6.33;;;4.57;;
17592;SDS011;8915;51.760;14.300;2023-11-19T08:45:39;5.17;;;3.23;;
17592;SDS011;8915;51.760;14.300;2023-11-19T08:48:06;5.17;;;3.70;;
17592;SDS011;8915;51.760;14.300;2023-11-19T08:50:32;4.87;;;4.07;;
17592;SDS011;8915;51.760;14.300;2023-11-19T08:52:58;6.43;;;4.50;;
17592;SDS011;8915;51.760;14.300;2023-11-19T08:55:25;7.57;;;4.50;;
17592;SDS011;8915;51.760;14.300;2023-11-19T08:57:51;12.87;;;6.63;;
17592;SDS011;8915;51.760;14.300;2023-11-19T09:00:18;5.10;;;3.50;;
17592;SDS011;8915;51.760;14.300;2023-11-19T09:02:47;9.00;;;5.10;;
17592;SDS011;8915;51.760;14.300;2023-11-19T09:05:13;6.07;;;4.00;;
17592;SDS011;8915;51.760;14.300;2023-11-19T09:07:40;5.67;;;4.03;;
17592;SDS011;8915;51.760;14.300;2023-11-19T09:10:07;5.43;;;3.90;;
17592;SDS011;8915;51.760;14.300;2023-11-19T09:12:34;4.07;;;3.20;;
17592;SDS011;8915;51.760;14.300;2023-11-19T09:15:00;4.27;;;3.27;;
17592;SDS011;8915;51.760;14.300;2023-11-19T09:17:27;4.60;;;3.50;;
17592;SDS011;8915;51.760;14.300;2023-11-19T09:19:54;3.80;;;2.93;;
17592;SDS011;8915;51.760;14.300;2023-11-19T09:22:21;4.27;;;3.10;;
17592;SDS011;8915;51.760;14.300;2023-11-19T09:24:47;3.63;;;3.10;;
17592;SDS011;8915;51.760;14.300;2023-11-19T09:27:13;4.77;;;3.40;;
17592;SDS011;8915;51.760;14.300;2023-11-19T09:29:40;6.30;;;3.20;;
17592;SDS011;8915;51.760;14.300;2023-11-19T09:32:08;5.03;;;3.93;;
17592;SDS011;8915;51.760;14.300;2023-11-19T09:34:34;7.13;;;4.17;;
17592;SDS011;8915;51.760;14.300;2023-11-19T09:37:02;8.23;;;4.17;;
17592;SDS011;8915;51.760;14.300;2023-11-19T09:39:28;5.27;;;3.97;;
17592;SDS011;8915;51.760;14.300;2023-11-19T09:41:55;5.03;;;4.03;;
17592;SDS011;8915;51.760;14.300;2023-11-19T09:44:22;4.13;;;3.70;;
17592;SDS011;8915;51.760;14.300;2023-11-19T09:46:50;5.60;;;3.27;;
17592;SDS011;8915;51.760;14.300;2023-11-19T09:49:16;4.77;;;3.93;;
17592;SDS011;8915;51.760;14.300;2023-11-19T09:51:47;6.53;;;4.73;;
17592;SDS011;8915;51.760;14.300;2023-11-19T09:54:15;6.73;;;5.70;;
17592;SDS011;8915;51.760;14.300;2023-11-19T09:56:41;7.70;;;6.37;;
17592;SDS011;8915;51.760;14.300;2023-11-19T09:59:09;8.00;;;6.00;;
17592;SDS011;8915;51.760;14.300;2023-11-19T10:01:37;12.60;;;6.27;;
17592;SDS011;8915;51.760;14.300;2023-11-19T10:04:04;7.17;;;5.97;;
17592;SDS011;8915;51.760;14.300;2023-11-19T10:06:32;7.03;;;5.27;;
17592;SDS011;8915;51.760;14.300;2023-11-19T10:08:58;4.93;;;4.07;;
17592;SDS011;8915;51.760;14.300;2023-11-19T10:11:26;3.17;;;2.80;;
17592;SDS011;8915;51.760;14.300;2023-11-19T10:13:53;3.17;;;2.73;;
17592;SDS011;8915;51.760;14.300;2023-11-19T10:16:20;3.17;;;2.80;;
17592;SDS011;8915;51.760;14.300;2023-11-19T10:18:47;2.53;;;1.90;;
17592;SDS011;8915;51.760;14.300;2023-11-19T10:21:16;3.40;;;1.80;;
17592;SDS011;8915;51.760;14.300;2023-11-19T10:23:49;4.63;;;2.23;;
17592;SDS011;8915;51.760;14.300;2023-11-19T10:26:17;3.53;;;2.03;;
17592;SDS011;8915;51.760;14.300;2023-11-19T10:28:45;3.00;;;1.80;;
17592;SDS011;8915;51.760;14.300;2023-11-19T10:31:12;3.63;;;2.20;;
17592;SDS011;8915;51.760;14.300;2023-11-19T10:33:39;3.60;;;1.50;;
17592;SDS011;8915;51.760;14.300;2023-11-19T10:36:05;2.83;;;1.80;;
17592;SDS011;8915;51.760;14.300;2023-11-19T10:38:32;2.63;;;1.80;;
17592;SDS011;8915;51.760;14.300;2023-11-19T10:40:59;2.30;;;1.70;;
17592;SDS011;8915;51.760;14.300;2023-11-19T10:43:26;3.47;;;1.53;;
17592;SDS011;8915;51.760;14.300;2023-11-19T10:45:54;2.20;;;1.73;;
17592;SDS011;8915;51.760;14.300;2023-11-19T10:48:34;2.80;;;1.60;;
17592;SDS011;8915;51.760;14.300;2023-11-19T10:51:01;3.57;;;1.90;;
17592;SDS011;8915;51.760;14.300;2023-11-19T10:53:32;3.00;;;2.10;;
17592;SDS011;8915;51.760;14.300;2023-11-19T10:56:01;3.97;;;2.40;;
17592;SDS011;8915;51.760;14.300;2023-11-19T10:58:33;5.47;;;2.23;;
17592;SDS011;8915;51.760;14.300;2023-11-19T11:01:06;5.20;;;1.83;;
17592;SDS011;8915;51.760;14.300;2023-11-19T11:03:38;3.07;;;1.73;;
17592;SDS011;8915;51.760;14.300;2023-11-19T11:06:06;4.93;;;3.13;;
17592;SDS011;8915;51.760;14.300;2023-11-19T11:08:34;4.13;;;2.43;;
17592;SDS011;8915;51.760;14.300;2023-11-19T11:11:03;2.97;;;2.33;;
17592;SDS011;8915;51.760;14.300;2023-11-19T11:13:31;7.97;;;3.60;;
17592;SDS011;8915;51.760;14.300;2023-11-19T11:15:59;9.37;;;5.30;;
17592;SDS011;8915;51.760;14.300;2023-11-19T11:18:27;8.03;;;2.73;;
17592;SDS011;8915;51.760;14.300;2023-11-19T11:20:54;4.87;;;2.27;;
17592;SDS011;8915;51.760;14.300;2023-11-19T11:23:29;6.37;;;2.67;;
17592;SDS011;8915;51.760;14.300;2023-11-19T11:26:09;5.97;;;2.77;;
17592;SDS011;8915;51.760;14.300;2023-11-19T11:28:52;7.07;;;1.53;;
17592;SDS011;8915;51.760;14.300;2023-11-19T11:31:26;6.23;;;1.97;;
17592;SDS011;8915;51.760;14.300;2023-11-19T11:34:10;6.37;;;1.80;;
17592;SDS011;8915;51.760;14.300;2023-11-19T11:36:53;6.57;;;1.90;;
17592;SDS011;8915;51.760;14.300;2023-11-19T11:39:28;2.90;;;1.73;;
17592;SDS011;8915;51.760;14.300;2023-11-19T11:45:00;4.00;;;1.63;;
17592;SDS011;8915;51.760;14.300;2023-11-19T11:50:34;4.10;;;2.23;;
17592;SDS011;8915;51.760;14.300;2023-11-19T11:53:14;5.47;;;1.33;;
17592;SDS011;8915;51.760;14.300;2023-11-19T11:55:51;6.37;;;2.10;;
17592;SDS011;8915;51.760;14.300;2023-11-19T11:58:20;4.20;;;1.80;;
17592;SDS011;8915;51.760;14.300;2023-11-19T12:00:47;4.23;;;1.60;;
17592;SDS011;8915;51.760;14.300;2023-11-19T12:03:16;4.03;;;1.30;;
17592;SDS011;8915;51.760;14.300;2023-11-19T12:05:48;3.03;;;1.53;;
17592;SDS011;8915;51.760;14.300;2023-11-19T12:08:15;8.17;;;1.50;;
17592;SDS011;8915;51.760;14.300;2023-11-19T12:10:46;5.30;;;1.60;;
17592;SDS011;8915;51.760;14.300;2023-11-19T12:13:13;3.53;;;1.40;;
17592;SDS011;8915;51.760;14.300;2023-11-19T12:18:36;6.33;;;1.40;;
17592;SDS011;8915;51.760;14.300;2023-11-19T12:21:07;3.97;;;1.60;;
17592;SDS011;8915;51.760;14.300;2023-11-19T12:23:35;7.50;;;2.43;;
17592;SDS011;8915;51.760;14.300;2023-11-19T12:26:21;5.37;;;1.60;;
17592;SDS011;8915;51.760;14.300;2023-11-19T12:28:58;4.80;;;1.83;;
17592;SDS011;8915;51.760;14.300;2023-11-19T12:31:25;4.83;;;1.60;;
17592;SDS011;8915;51.760;14.300;2023-11-19T12:33:51;7.70;;;2.03;;
17592;SDS011;8915;51.760;14.300;2023-11-19T12:36:19;6.23;;;1.83;;
17592;SDS011;8915;51.760;14.300;2023-11-19T12:38:46;3.80;;;1.60;;
17592;SDS011;8915;51.760;14.300;2023-11-19T12:41:12;2.33;;;1.30;;
17592;SDS011;8915;51.760;14.300;2023-11-19T12:43:42;8.03;;;2.00;;
17592;SDS011;8915;51.760;14.300;2023-11-19T12:46:19;7.20;;;1.73;;
17592;SDS011;8915;51.760;14.300;2023-11-19T12:48:46;6.77;;;2.10;;
17592;SDS011;8915;51.760;14.300;2023-11-19T12:51:13;4.47;;;2.10;;
17592;SDS011;8915;51.760;14.300;2023-11-19T12:53:48;4.80;;;1.60;;
17592;SDS011;8915;51.760;14.300;2023-11-19T12:56:16;5.87;;;1.50;;
17592;SDS011;8915;51.760;14.300;2023-11-19T12:58:42;5.20;;;1.67;;
17592;SDS011;8915;51.760;14.300;2023-11-19T13:01:09;5.60;;;1.70;;
17592;SDS011;8915;51.760;14.300;2023-11-19T13:03:36;4.60;;;1.20;;
17592;SDS011;8915;51.760;14.300;2023-11-19T13:06:04;6.40;;;2.30;;
17592;SDS011;8915;51.760;14.300;2023-11-19T13:08:36;2.70;;;1.50;;
17592;SDS011;8915;51.760;14.300;2023-11-19T13:11:05;8.10;;;1.80;;
17592;SDS011;8915;51.760;14.300;2023-11-19T13:13:32;7.87;;;2.90;;
17592;SDS011;8915;51.760;14.300;2023-11-19T13:16:03;6.83;;;2.00;;
17592;SDS011;8915;51.760;14.300;2023-11-19T13:18:31;13.40;;;4.63;;
17592;SDS011;8915;51.760;14.300;2023-11-19T13:20:57;5.03;;;2.00;;
17592;SDS011;8915;51.760;14.300;2023-11-19T13:23:24;14.80;;;5.27;;
17592;SDS011;8915;51.760;14.300;2023-11-19T13:25:50;9.97;;;2.67;;
17592;SDS011;8915;51.760;14.300;2023-11-19T13:28:18;8.50;;;1.90;;
17592;SDS011;8915;51.760;14.300;2023-11-19T13:30:44;6.40;;;1.70;;
17592;SDS011;8915;51.760;14.300;2023-11-19T13:33:11;3.83;;;1.63;;
17592;SDS011;8915;51.760;14.300;2023-11-19T13:35:38;10.83;;;2.03;;
17592;SDS011;8915;51.760;14.300;2023-11-19T13:38:05;13.07;;;2.73;;
17592;SDS011;8915;51.760;14.300;2023-11-19T13:40:33;7.20;;;2.20;;
17592;SDS011;8915;51.760;14.300;2023-11-19T13:43:00;8.77;;;2.23;;
17592;SDS011;8915;51.760;14.300;2023-11-19T13:45:27;5.80;;;1.90;;
17592;SDS011;8915;51.760;14.300;2023-11-19T13:47:54;10.07;;;2.20;;
17592;SDS011;8915;51.760;14.300;2023-11-19T13:50:20;7.10;;;2.07;;
17592;SDS011;8915;51.760;14.300;2023-11-19T13:52:48;11.93;;;2.70;;
17592;SDS011;8915;51.760;14.300;2023-11-19T13:55:14;9.13;;;2.10;;
17592;SDS011;8915;51.760;14.300;2023-11-19T13:57:41;8.43;;;2.30;;
17592;SDS011;8915;51.760;14.300;2023-11-19T14:00:09;7.40;;;2.17;;
17592;SDS011;8915;51.760;14.300;2023-11-19T14:02:39;5.33;;;2.00;;
17592;SDS011;8915;51.760;14.300;2023-11-19T14:05:06;5.97;;;1.63;;
17592;SDS011;8915;51.760;14.300;2023-11-19T14:07:32;5.73;;;1.90;;
17592;SDS011;8915;51.760;14.300;2023-11-19T14:09:59;5.07;;;1.97;;
17592;SDS011;8915;51.760;14.300;2023-11-19T14:12:25;6.30;;;2.10;;
17592;SDS011;8915;51.760;14.300;2023-11-19T14:14:52;4.40;;;1.67;;
17592;SDS011;8915;51.760;14.300;2023-11-19T14:17:22;5.37;;;2.10;;
17592;SDS011;8915;51.760;14.300;2023-11-19T14:19:51;7.53;;;1.83;;
17592;SDS011;8915;51.760;14.300;2023-11-19T14:22:17;5.43;;;1.70;;
17592;SDS011;8915;51.760;14.300;2023-11-19T14:24:44;3.30;;;1.70;;
17592;SDS011;8915;51.760;14.300;2023-11-19T14:27:10;3.90;;;2.10;;
17592;SDS011;8915;51.760;14.300;2023-11-19T14:29:36;5.73;;;2.37;;
17592;SDS011;8915;51.760;14.300;2023-11-19T14:32:03;7.80;;;2.57;;
17592;SDS011;8915;51.760;14.300;2023-11-19T14:34:30;11.40;;;2.17;;
17592;SDS011;8915;51.760;14.300;2023-11-19T14:36:58;5.43;;;2.13;;
17592;SDS011;8915;51.760;14.300;2023-11-19T14:39:25;4.97;;;2.20;;
17592;SDS011;8915;51.760;14.300;2023-11-19T14:41:53;5.80;;;1.70;;
17592;SDS011;8915;51.760;14.300;2023-11-19T14:44:23;7.90;;;2.93;;
17592;SDS011;8915;51.760;14.300;2023-11-19T14:46:49;8.10;;;2.30;;
17592;SDS011;8915;51.760;14.300;2023-11-19T14:49:15;4.87;;;1.60;;
17592;SDS011;8915;51.760;14.300;2023-11-19T14:51:42;5.27;;;1.77;;
17592;SDS011;8915;51.760;14.300;2023-11-19T14:54:09;4.27;;;2.10;;
17592;SDS011;8915;51.760;14.300;2023-11-19T14:56:36;5.60;;;2.00;;
17592;SDS011;8915;51.760;14.300;2023-11-19T14:59:03;9.77;;;2.47;;